Time;durP1;ratioP1;P1;durP2;ratioP2;P2;SDS_P1;SDS_P2;PMS_P1;PMS_P2;Temp;Humidity;BMP_temperature;BMP_pressure;BME280_temperature;BME280_humidity;BME280_pressure;Samples;Min_cycle;Max_cycle;Signal;HPM_P1;HPM_P2
2023/08/21 00:01:28;;;;;;;6.20;1.92;;;21.40;99.70;;;;;;5080393;28;20028;-85
2023/08/21 00:03:54;;;;;;;5.63;1.85;;;21.40;99.80;;;;;;5083085;28;20072;-84
2023/08/21 00:06:20;;;;;;;3.80;1.58;;;21.40;99.90;;;;;;5085011;28;20073;-85
2023/08/21 00:08:46;;;;;;;4.50;1.60;;;21.30;99.90;;;;;;5067809;28;20088;-85
2023/08/21 00:11:12;;;;;;;3.50;1.52;;;21.30;99.90;;;;;;5052869;28;20033;-85
2023/08/21 00:13:37;;;;;;;2.83;1.40;;;21.30;99.90;;;;;;5053220;28;20075;-86
2023/08/21 00:16:03;;;;;;;3.50;1.60;;;21.30;99.90;;;;;;5043608;28;20025;-86
2023/08/21 00:18:29;;;;;;;3.38;1.70;;;21.30;99.90;;;;;;5058507;28;20079;-86
2023/08/21 00:20:54;;;;;;;3.15;1.58;;;21.30;99.90;;;;;;5058059;28;20033;-85
2023/08/21 00:23:20;;;;;;;7.57;1.70;;;21.30;99.90;;;;;;5063096;28;20025;-86
2023/08/21 00:25:47;;;;;;;4.10;1.58;;;21.20;99.90;;;;;;5021379;28;20033;-85
2023/08/21 00:28:13;;;;;;;3.03;1.40;;;21.20;99.90;;;;;;5054483;28;20047;-86
2023/08/21 00:30:38;;;;;;;4.38;1.63;;;21.20;99.90;;;;;;5054400;28;20049;-85
2023/08/21 00:33:04;;;;;;;3.92;2.08;;;21.20;99.90;;;;;;5020658;28;20029;-86
2023/08/21 00:35:30;;;;;;;3.20;1.40;;;21.20;99.90;;;;;;5055575;28;20017;-86
2023/08/21 00:37:56;;;;;;;3.45;1.75;;;21.20;99.90;;;;;;5055137;28;20817;-86
2023/08/21 00:40:21;;;;;;;2.20;1.40;;;21.20;99.90;;;;;;5037648;28;20025;-85
2023/08/21 00:42:47;;;;;;;3.80;1.55;;;21.10;99.90;;;;;;5037339;28;20029;-85
2023/08/21 00:45:13;;;;;;;3.88;1.50;;;21.10;99.90;;;;;;5053659;28;20025;-86
2023/08/21 00:47:39;;;;;;;4.68;1.50;;;21.10;99.90;;;;;;5069851;28;20029;-86
2023/08/21 00:50:07;;;;;;;4.25;1.50;;;21.10;99.90;;;;;;5053885;28;20024;-86
2023/08/21 00:52:34;;;;;;;3.95;1.95;;;21.20;99.90;;;;;;5053862;28;20112;-86
2023/08/21 00:55:00;;;;;;;4.35;1.67;;;21.10;99.90;;;;;;5085126;28;20052;-85
2023/08/21 00:57:26;;;;;;;5.10;1.50;;;21.10;99.90;;;;;;5051191;28;21504;-86
2023/08/21 00:59:52;;;;;;;4.38;1.77;;;21.10;99.90;;;;;;5036399;28;20029;-85
2023/08/21 01:02:19;;;;;;;4.00;1.75;;;21.10;99.90;;;;;;5065099;28;20043;-85
2023/08/21 01:04:44;;;;;;;4.40;1.70;;;21.10;99.90;;;;;;5085325;28;20028;-85
2023/08/21 01:07:10;;;;;;;2.55;1.50;;;21.10;99.90;;;;;;5052137;28;20025;-85
2023/08/21 01:09:53;;;;;;;3.00;1.70;;;21.10;99.90;;;;;;5072923;28;20024;-85
2023/08/21 01:12:25;;;;;;;3.70;1.70;;;21.10;99.90;;;;;;5073800;28;20020;-86
2023/08/21 01:15:07;;;;;;;2.75;1.50;;;21.10;99.90;;;;;;5063339;28;20072;-86
2023/08/21 01:17:37;;;;;;;5.57;1.73;;;21.10;99.90;;;;;;5036975;28;20040;-86
2023/08/21 01:20:06;;;;;;;2.95;1.38;;;21.10;99.90;;;;;;5069785;28;20041;-86
2023/08/21 01:22:39;;;;;;;3.35;1.45;;;21.10;99.90;;;;;;5054188;28;20373;-86
2023/08/21 01:25:07;;;;;;;3.92;1.48;;;21.10;99.90;;;;;;5042389;28;20025;-86
2023/08/21 01:27:34;;;;;;;2.38;1.60;;;21.10;99.90;;;;;;5033480;28;20052;-86
2023/08/21 01:30:02;;;;;;;4.65;1.92;;;21.10;99.90;;;;;;5033302;28;20022;-85
2023/08/21 01:33:05;;;;;;;3.60;1.73;;;21.10;99.90;;;;;;5033366;28;20377;-85
2023/08/21 01:35:33;;;;;;;3.28;1.50;;;21.00;99.90;;;;;;5043610;28;20052;-85
2023/08/21 01:37:59;;;;;;;3.13;1.52;;;21.00;99.90;;;;;;5063139;28;20023;-86
2023/08/21 01:40:25;;;;;;;5.25;1.85;;;21.00;99.90;;;;;;5036423;28;20021;-85
2023/08/21 01:42:53;;;;;;;3.72;1.50;;;21.00;99.90;;;;;;5053530;28;20033;-85
2023/08/21 01:45:19;;;;;;;8.38;2.00;;;20.90;99.90;;;;;;5054233;28;20015;-86
2023/08/21 01:47:47;;;;;;;4.13;1.70;;;20.90;99.90;;;;;;5051549;28;20018;-85
2023/08/21 01:50:13;;;;;;;2.92;1.48;;;20.90;99.90;;;;;;5017762;28;20247;-85
2023/08/21 01:52:39;;;;;;;4.32;1.50;;;20.90;99.90;;;;;;5033976;28;20454;-86
2023/08/21 01:55:07;;;;;;;4.03;1.75;;;20.90;99.90;;;;;;5022303;28;20080;-85
2023/08/21 01:57:33;;;;;;;5.07;1.35;;;20.90;99.90;;;;;;5068296;28;20009;-85
2023/08/21 01:59:59;;;;;;;4.50;1.98;;;20.90;99.90;;;;;;5060280;28;20013;-86
2023/08/21 02:02:25;;;;;;;3.50;1.63;;;20.80;99.90;;;;;;5077620;28;20036;-84
2023/08/21 02:04:50;;;;;;;5.78;1.85;;;20.80;99.90;;;;;;5084288;28;20016;-86
2023/08/21 02:07:16;;;;;;;5.03;1.70;;;20.80;99.90;;;;;;5107822;28;20088;-85
2023/08/21 02:09:42;;;;;;;4.85;1.48;;;20.80;99.90;;;;;;5077617;28;20055;-85
2023/08/21 02:12:07;;;;;;;2.95;1.40;;;20.70;99.90;;;;;;5069637;28;20401;-86
2023/08/21 02:14:33;;;;;;;5.88;2.03;;;20.70;99.90;;;;;;5086612;28;20059;-86
2023/08/21 02:16:59;;;;;;;2.58;1.60;;;20.70;99.90;;;;;;5074834;28;20017;-85
2023/08/21 02:19:25;;;;;;;2.15;1.52;;;20.70;99.90;;;;;;5034563;28;20224;-85
2023/08/21 02:21:50;;;;;;;4.38;1.50;;;20.70;99.90;;;;;;5032455;28;20146;-85
2023/08/21 02:24:16;;;;;;;4.57;1.67;;;20.70;99.90;;;;;;5052070;28;20024;-85
2023/08/21 02:26:45;;;;;;;4.80;1.75;;;20.70;99.90;;;;;;5045039;28;20020;-86
2023/08/21 02:29:10;;;;;;;3.20;1.58;;;20.70;99.90;;;;;;5066384;28;20033;-85
2023/08/21 02:31:36;;;;;;;3.58;1.70;;;20.70;99.90;;;;;;5034015;28;20515;-85
2023/08/21 02:34:02;;;;;;;3.78;1.50;;;20.70;99.90;;;;;;5067076;28;20068;-85
2023/08/21 02:36:27;;;;;;;5.05;1.67;;;20.70;99.90;;;;;;5046842;28;20025;-86
2023/08/21 02:38:53;;;;;;;6.40;1.80;;;20.70;99.90;;;;;;5048507;28;20021;-86
2023/08/21 02:41:18;;;;;;;5.15;1.70;;;20.70;99.90;;;;;;5050929;28;20041;-85
2023/08/21 02:43:44;;;;;;;3.22;1.58;;;20.70;99.90;;;;;;5057393;28;20103;-85
2023/08/21 02:46:10;;;;;;;5.25;2.40;;;20.70;99.90;;;;;;5073297;28;20123;-86
2023/08/21 02:48:35;;;;;;;7.47;1.60;;;20.70;99.90;;;;;;5040429;28;20021;-87
2023/08/21 02:51:02;;;;;;;5.57;2.17;;;20.70;99.90;;;;;;5052677;28;20037;-86
2023/08/21 02:53:28;;;;;;;3.88;1.85;;;20.70;99.90;;;;;;5088940;28;20027;-86
2023/08/21 02:55:54;;;;;;;2.42;1.73;;;20.70;99.90;;;;;;5061430;28;20380;-86
2023/08/21 02:58:19;;;;;;;3.50;1.52;;;20.70;99.90;;;;;;5052701;28;20029;-87
2023/08/21 03:00:45;;;;;;;3.30;1.50;;;20.70;99.90;;;;;;5052303;28;20017;-86
2023/08/21 03:03:11;;;;;;;5.95;1.67;;;20.70;99.90;;;;;;5068586;28;20033;-86
2023/08/21 03:05:37;;;;;;;2.80;1.40;;;20.70;99.90;;;;;;5052242;28;20074;-86
2023/08/21 03:08:02;;;;;;;3.10;1.75;;;20.70;99.90;;;;;;5035738;28;20449;-87
2023/08/21 03:10:33;;;;;;;3.53;1.55;;;20.70;99.90;;;;;;5031321;28;20053;-86
2023/08/21 03:12:58;;;;;;;5.00;1.80;;;20.60;99.90;;;;;;5036024;28;20041;-86
2023/08/21 03:15:24;;;;;;;4.45;1.70;;;20.70;99.90;;;;;;5042024;28;20025;-87
2023/08/21 03:17:50;;;;;;;2.88;1.70;;;20.60;99.90;;;;;;5039312;28;20104;-86
2023/08/21 03:20:17;;;;;;;3.15;1.73;;;20.70;99.90;;;;;;5054857;28;20056;-86
2023/08/21 03:22:43;;;;;;;3.28;1.40;;;20.60;99.90;;;;;;5039242;28;20053;-86
2023/08/21 03:25:09;;;;;;;3.40;1.90;;;20.60;99.90;;;;;;5039672;28;20025;-87
2023/08/21 03:27:39;;;;;;;5.22;1.90;;;20.60;99.90;;;;;;5076046;28;20393;-86
2023/08/21 03:30:06;;;;;;;3.15;2.03;;;20.60;99.90;;;;;;5067185;28;20017;-86
2023/08/21 03:32:33;;;;;;;4.22;2.10;;;20.60;99.90;;;;;;5019750;28;20037;-86
2023/08/21 03:34:58;;;;;;;5.15;2.05;;;20.60;99.90;;;;;;5035506;28;20020;-86
2023/08/21 03:37:24;;;;;;;4.78;1.90;;;20.60;99.90;;;;;;5048854;28;20020;-86
2023/08/21 03:39:50;;;;;;;4.57;1.95;;;20.60;99.90;;;;;;5056985;28;20074;-85
2023/08/21 03:42:15;;;;;;;3.45;1.67;;;20.70;99.90;;;;;;5018616;28;20041;-86
2023/08/21 03:44:41;;;;;;;5.35;1.80;;;20.60;99.90;;;;;;5052928;28;20021;-86
2023/08/21 03:47:07;;;;;;;3.38;1.60;;;20.60;99.90;;;;;;5038275;28;20449;-86
2023/08/21 03:49:33;;;;;;;3.65;2.10;;;20.60;99.90;;;;;;5076550;28;20075;-86
2023/08/21 03:51:59;;;;;;;4.40;1.80;;;20.60;99.90;;;;;;5047037;28;20028;-86
2023/08/21 03:54:24;;;;;;;5.05;1.83;;;20.60;99.90;;;;;;5068526;28;20009;-87
2023/08/21 03:56:52;;;;;;;3.88;1.60;;;20.60;99.90;;;;;;5063088;28;20025;-86
2023/08/21 03:59:18;;;;;;;5.05;1.50;;;20.50;99.90;;;;;;5078610;28;20021;-86
2023/08/21 04:01:43;;;;;;;3.17;1.90;;;20.50;99.90;;;;;;5064879;28;20052;-86
2023/08/21 04:04:09;;;;;;;3.10;1.50;;;20.50;99.90;;;;;;5042317;28;20009;-85
2023/08/21 04:06:35;;;;;;;3.92;1.65;;;20.50;99.90;;;;;;5064068;28;20353;-85
2023/08/21 04:09:01;;;;;;;2.05;1.40;;;20.50;99.90;;;;;;5055755;28;20453;-86
2023/08/21 04:11:28;;;;;;;5.07;1.50;;;20.40;99.90;;;;;;5038854;28;20021;-86
2023/08/21 04:13:54;;;;;;;2.15;1.30;;;20.40;99.90;;;;;;5029914;28;20037;-86
2023/08/21 04:16:21;;;;;;;3.88;1.85;;;20.40;99.90;;;;;;5074824;28;20032;-85
2023/08/21 04:18:46;;;;;;;4.95;1.80;;;20.40;99.90;;;;;;5058042;28;20041;-85
2023/08/21 04:21:12;;;;;;;2.22;1.38;;;20.40;99.90;;;;;;5057843;28;20364;-86
2023/08/21 04:23:38;;;;;;;3.20;1.52;;;20.40;99.90;;;;;;5071959;28;20025;-86
2023/08/21 04:26:04;;;;;;;4.82;1.60;;;20.30;99.90;;;;;;5075033;28;20036;-85
2023/08/21 04:28:31;;;;;;;4.18;1.85;;;20.40;99.90;;;;;;5067517;28;20032;-86
2023/08/21 04:30:57;;;;;;;2.47;1.52;;;20.40;99.90;;;;;;5070871;28;20516;-85
2023/08/21 04:33:25;;;;;;;2.63;1.40;;;20.40;99.90;;;;;;5039473;28;20094;-86
2023/08/21 04:35:50;;;;;;;4.10;1.33;;;20.40;99.90;;;;;;5061152;28;20017;-86
2023/08/21 04:38:16;;;;;;;4.15;1.58;;;20.30;99.90;;;;;;5057579;28;20074;-86
2023/08/21 04:40:42;;;;;;;2.70;1.38;;;20.40;99.90;;;;;;5074331;28;20025;-85
2023/08/21 04:43:07;;;;;;;4.72;1.70;;;20.40;99.90;;;;;;5037340;28;20029;-86
2023/08/21 04:45:33;;;;;;;2.35;1.48;;;20.40;99.90;;;;;;5057502;28;20028;-86
2023/08/21 04:47:59;;;;;;;3.17;1.55;;;20.40;99.90;;;;;;5063227;28;20500;-86
2023/08/21 04:50:24;;;;;;;4.05;2.03;;;20.40;99.90;;;;;;5045607;28;20123;-86
2023/08/21 04:52:50;;;;;;;2.53;1.50;;;20.40;99.90;;;;;;5062895;28;20037;-86
2023/08/21 04:55:16;;;;;;;3.58;1.40;;;20.40;99.90;;;;;;5036508;28;20400;-86
2023/08/21 04:57:42;;;;;;;3.40;1.50;;;20.40;99.90;;;;;;5056593;28;20030;-86
2023/08/21 05:00:09;;;;;;;3.75;1.60;;;20.40;99.90;;;;;;5062920;28;20020;-86
2023/08/21 05:02:35;;;;;;;4.15;1.70;;;20.40;99.90;;;;;;5078531;28;20025;-85
2023/08/21 05:05:00;;;;;;;3.75;1.80;;;20.40;99.90;;;;;;5074844;28;20432;-85
2023/08/21 05:07:27;;;;;;;2.63;1.40;;;20.40;99.90;;;;;;5059390;28;20820;-86
2023/08/21 05:09:52;;;;;;;5.07;1.73;;;20.40;99.90;;;;;;5068927;28;20017;-86
2023/08/21 05:12:18;;;;;;;4.13;1.42;;;20.40;99.90;;;;;;5063364;28;20452;-85
2023/08/21 05:14:43;;;;;;;3.30;1.50;;;20.40;99.90;;;;;;5081208;28;20112;-86
2023/08/21 05:17:09;;;;;;;3.90;1.48;;;20.40;99.90;;;;;;5056115;28;20013;-87
2023/08/21 05:19:35;;;;;;;2.83;1.40;;;20.40;99.90;;;;;;5073326;28;20048;-86
2023/08/21 05:22:00;;;;;;;3.10;1.83;;;20.40;99.90;;;;;;5052393;28;20059;-86
2023/08/21 05:24:26;;;;;;;4.00;1.63;;;20.40;99.90;;;;;;5036724;28;20095;-86
2023/08/21 05:26:52;;;;;;;4.10;1.48;;;20.40;99.90;;;;;;5054040;28;20021;-86
2023/08/21 05:29:17;;;;;;;4.70;1.60;;;20.40;99.90;;;;;;5053542;28;20096;-86
2023/08/21 05:31:43;;;;;;;3.78;1.73;;;20.50;99.90;;;;;;5052441;28;20018;-87
2023/08/21 05:34:09;;;;;;;3.28;1.50;;;20.40;99.90;;;;;;5066925;28;20044;-86
2023/08/21 05:36:34;;;;;;;2.53;1.30;;;20.50;99.90;;;;;;5036430;28;20021;-86
2023/08/21 05:39:05;;;;;;;3.20;1.55;;;20.50;99.90;;;;;;5037620;28;20071;-88
2023/08/21 05:41:31;;;;;;;3.75;1.63;;;20.50;99.90;;;;;;5055310;28;20212;-86
2023/08/21 05:43:57;;;;;;;3.08;1.48;;;20.60;99.90;;;;;;5049928;28;20033;-86
2023/08/21 05:46:23;;;;;;;3.28;1.60;;;20.50;99.90;;;;;;5048743;28;20465;-86
2023/08/21 05:48:48;;;;;;;4.10;1.77;;;20.60;99.90;;;;;;5050747;28;20032;-85
2023/08/21 05:51:14;;;;;;;3.17;1.70;;;20.60;99.90;;;;;;5062912;28;20094;-85
2023/08/21 05:53:39;;;;;;;2.60;1.42;;;20.70;99.90;;;;;;5092101;28;20077;-87
2023/08/21 05:56:05;;;;;;;3.63;1.60;;;20.70;99.90;;;;;;5106493;28;20014;-86
2023/08/21 05:58:32;;;;;;;4.22;1.52;;;20.70;99.90;;;;;;5041357;28;20020;-86
2023/08/21 06:00:58;;;;;;;2.35;1.48;;;20.80;99.90;;;;;;5064474;28;20021;-87
2023/08/21 06:03:24;;;;;;;2.65;1.42;;;20.80;99.90;;;;;;5097937;28;20025;-86
2023/08/21 06:05:50;;;;;;;2.95;1.50;;;20.80;99.90;;;;;;5060414;28;20029;-86
2023/08/21 06:08:16;;;;;;;4.63;1.70;;;20.80;99.90;;;;;;5058926;28;20044;-87
2023/08/21 06:10:42;;;;;;;3.75;2.10;;;20.90;99.90;;;;;;5040875;28;20075;-86
2023/08/21 06:13:08;;;;;;;4.47;1.45;;;21.00;99.90;;;;;;5080455;28;20461;-86
2023/08/21 06:15:33;;;;;;;2.70;1.55;;;21.00;99.90;;;;;;5062344;28;20357;-87
2023/08/21 06:18:00;;;;;;;5.43;1.80;;;21.00;99.90;;;;;;5067957;28;20018;-87
2023/08/21 06:20:26;;;;;;;3.13;1.48;;;21.10;99.90;;;;;;5056914;28;20390;-87
2023/08/21 06:22:51;;;;;;;2.75;1.42;;;21.10;99.90;;;;;;5056138;28;20046;-87
2023/08/21 06:25:19;;;;;;;3.95;1.83;;;21.20;99.90;;;;;;5072324;28;20025;-86
2023/08/21 06:27:44;;;;;;;4.10;1.30;;;21.30;99.90;;;;;;5055509;28;20029;-87
2023/08/21 06:30:10;;;;;;;4.55;1.63;;;21.30;99.90;;;;;;5055901;28;20349;-87
2023/08/21 06:32:36;;;;;;;4.13;1.70;;;21.30;99.90;;;;;;5073721;28;20467;-87
2023/08/21 06:35:02;;;;;;;3.97;1.52;;;21.40;99.90;;;;;;5056053;28;20024;-86
2023/08/21 06:37:28;;;;;;;2.72;1.30;;;21.40;99.90;;;;;;5056101;28;20070;-86
2023/08/21 06:39:53;;;;;;;5.07;1.75;;;21.40;99.90;;;;;;5073956;28;20103;-87
2023/08/21 06:42:19;;;;;;;3.10;1.23;;;21.40;99.90;;;;;;5072385;28;20112;-87
2023/08/21 06:44:45;;;;;;;3.58;1.45;;;21.50;99.90;;;;;;5072260;28;20049;-86
2023/08/21 06:47:10;;;;;;;6.40;1.77;;;21.50;99.90;;;;;;5057797;28;20023;-86
2023/08/21 06:49:36;;;;;;;4.50;1.80;;;21.60;99.90;;;;;;5059411;28;20024;-86
2023/08/21 06:52:03;;;;;;;3.83;1.30;;;21.60;99.90;;;;;;5059562;28;20028;-87
2023/08/21 06:54:29;;;;;;;5.13;1.70;;;21.60;99.90;;;;;;5059428;28;20013;-87
2023/08/21 06:56:54;;;;;;;3.38;1.50;;;21.70;99.90;;;;;;5059667;28;20025;-86
2023/08/21 06:59:23;;;;;;;2.85;1.60;;;21.70;99.90;;;;;;5059418;28;20021;-87
2023/08/21 07:01:48;;;;;;;3.53;1.30;;;21.70;99.90;;;;;;5075992;28;20032;-87
2023/08/21 07:04:14;;;;;;;4.18;1.73;;;21.70;99.90;;;;;;5075938;28;20031;-87
2023/08/21 07:06:40;;;;;;;5.07;1.35;;;21.70;99.90;;;;;;5059192;28;20028;-86
2023/08/21 07:09:05;;;;;;;5.45;1.50;;;21.80;99.90;;;;;;5059035;28;20031;-87
2023/08/21 07:11:31;;;;;;;5.28;1.55;;;21.80;99.90;;;;;;5075844;28;20032;-86
2023/08/21 07:13:57;;;;;;;6.72;1.88;;;21.90;99.90;;;;;;5075725;28;20024;-87
2023/08/21 07:16:23;;;;;;;5.43;1.50;;;21.90;99.90;;;;;;5075667;28;20025;-86
2023/08/21 07:18:48;;;;;;;3.45;1.20;;;21.90;99.90;;;;;;5075291;28;20440;-86
2023/08/21 07:21:14;;;;;;;3.42;1.35;;;22.00;99.90;;;;;;5058896;28;20392;-87
2023/08/21 07:23:40;;;;;;;4.72;1.20;;;22.00;99.90;;;;;;5058808;28;20062;-87
2023/08/21 07:26:07;;;;;;;3.53;1.33;;;22.00;99.90;;;;;;5077142;28;20020;-87
2023/08/21 07:28:33;;;;;;;4.18;1.40;;;22.10;99.90;;;;;;5059192;28;20048;-87
2023/08/21 07:30:59;;;;;;;3.40;1.20;;;22.10;99.90;;;;;;5058905;28;20064;-87
2023/08/21 07:33:26;;;;;;;4.55;1.50;;;22.20;99.90;;;;;;5076638;28;20021;-86
2023/08/21 07:36:05;;;;;;;5.85;2.38;;;22.20;99.90;;;;;;5059060;28;20051;-87
2023/08/21 07:38:31;;;;;;;7.45;1.40;;;22.30;99.90;;;;;;5058970;28;20031;-87
2023/08/21 07:41:07;;;;;;;4.35;1.65;;;22.30;99.90;;;;;;5075561;28;20095;-86
2023/08/21 07:43:33;;;;;;;3.70;1.35;;;22.40;99.90;;;;;;5075387;28;20028;-87
2023/08/21 07:46:05;;;;;;;3.10;1.35;;;22.50;99.90;;;;;;5059234;28;20044;-87
2023/08/21 07:48:31;;;;;;;3.85;0.95;;;22.50;99.90;;;;;;5059820;28;20031;-87
2023/08/21 07:50:57;;;;;;;6.10;1.75;;;22.60;99.90;;;;;;5086418;28;20025;-87
2023/08/21 07:53:24;;;;;;;5.13;1.38;;;22.60;99.90;;;;;;5100097;28;20031;-86
2023/08/21 07:55:50;;;;;;;4.57;1.40;;;22.60;99.90;;;;;;5100134;28;20021;-87
2023/08/21 07:58:15;;;;;;;5.32;1.40;;;22.60;99.90;;;;;;5091581;28;20056;-87
2023/08/21 08:00:42;;;;;;;3.95;1.08;;;22.70;99.90;;;;;;5082857;28;20020;-86
2023/08/21 08:03:08;;;;;;;7.78;1.50;;;22.70;99.90;;;;;;5062821;28;20032;-87
2023/08/21 08:05:34;;;;;;;5.15;1.52;;;22.80;99.90;;;;;;5053242;28;20491;-86
2023/08/21 08:08:00;;;;;;;4.53;1.38;;;22.80;99.80;;;;;;5060224;28;20021;-87
2023/08/21 08:10:28;;;;;;;4.95;1.50;;;22.90;99.60;;;;;;5056477;28;20372;-86
2023/08/21 08:12:54;;;;;;;5.63;1.88;;;22.90;99.70;;;;;;5041485;28;20029;-87
2023/08/21 08:15:21;;;;;;;3.85;1.10;;;23.00;99.80;;;;;;5037856;28;20024;-87
2023/08/21 08:17:46;;;;;;;8.45;1.60;;;23.00;99.80;;;;;;5042861;28;20029;-87
2023/08/21 08:20:13;;;;;;;4.13;1.35;;;23.00;99.70;;;;;;5041280;28;20044;-87
2023/08/21 08:22:39;;;;;;;3.33;1.25;;;23.10;99.50;;;;;;5053169;28;20108;-87
2023/08/21 08:25:06;;;;;;;2.80;1.13;;;23.10;99.20;;;;;;5044163;28;20486;-87
2023/08/21 08:27:32;;;;;;;3.03;1.20;;;23.10;99.00;;;;;;5075788;28;20065;-88
2023/08/21 08:29:58;;;;;;;4.10;1.23;;;23.10;99.00;;;;;;5058001;28;20028;-87
2023/08/21 08:32:25;;;;;;;4.47;1.60;;;23.20;99.00;;;;;;5057801;28;20035;-87
2023/08/21 08:34:53;;;;;;;3.20;1.40;;;23.30;98.60;;;;;;5073634;28;20478;-87
2023/08/21 08:37:19;;;;;;;4.53;1.48;;;23.30;98.40;;;;;;5088231;28;20021;-87
2023/08/21 08:39:48;;;;;;;4.63;1.60;;;23.30;98.20;;;;;;5055385;28;20461;-87
2023/08/21 08:42:15;;;;;;;5.15;1.52;;;23.40;97.90;;;;;;5043027;28;20037;-88
2023/08/21 08:44:42;;;;;;;5.47;1.65;;;23.40;97.90;;;;;;5049833;28;20014;-87
2023/08/21 08:47:11;;;;;;;6.50;1.80;;;23.40;97.90;;;;;;5092934;28;20024;-88
2023/08/21 08:49:42;;;;;;;4.35;1.50;;;23.40;97.60;;;;;;5074292;28;20020;-87
2023/08/21 08:52:09;;;;;;;4.28;1.33;;;23.40;97.60;;;;;;5058053;28;20048;-86
2023/08/21 08:54:37;;;;;;;2.60;1.10;;;23.50;97.60;;;;;;5057532;28;20038;-87
2023/08/21 08:57:03;;;;;;;2.63;1.20;;;23.50;97.90;;;;;;5073829;28;20082;-86
2023/08/21 08:59:34;;;;;;;3.38;1.15;;;23.50;98.20;;;;;;5057064;28;20403;-86
2023/08/21 09:02:00;;;;;;;4.63;1.42;;;23.60;98.20;;;;;;5074092;28;20054;-87
2023/08/21 09:04:26;;;;;;;4.72;1.55;;;23.60;98.20;;;;;;5057567;28;20456;-87
2023/08/21 09:06:51;;;;;;;4.05;1.30;;;23.70;98.20;;;;;;5037022;28;20024;-87
2023/08/21 09:09:19;;;;;;;3.78;1.50;;;23.80;98.20;;;;;;5033751;28;20449;-87
2023/08/21 09:11:47;;;;;;;3.60;1.23;;;23.90;98.30;;;;;;5034958;28;20056;-87
2023/08/21 09:14:13;;;;;;;2.33;1.25;;;23.90;98.10;;;;;;5043882;28;20024;-87
2023/08/21 09:17:01;;;;;;;6.45;1.55;;;23.90;97.90;;;;;;5056958;28;20048;-86
2023/08/21 09:19:26;;;;;;;4.53;1.52;;;24.00;98.00;;;;;;5064255;28;20047;-86
2023/08/21 09:21:52;;;;;;;5.78;1.67;;;24.10;97.80;;;;;;5036629;28;20452;-86
2023/08/21 09:24:18;;;;;;;3.03;1.00;;;24.10;97.60;;;;;;5036906;28;20452;-87
2023/08/21 09:26:44;;;;;;;3.47;1.23;;;24.10;97.60;;;;;;5053553;28;20029;-86
2023/08/21 09:29:09;;;;;;;3.65;1.13;;;24.20;97.60;;;;;;5053610;28;20052;-87
2023/08/21 09:31:38;;;;;;;3.63;1.40;;;24.20;97.70;;;;;;5053446;28;20028;-86
2023/08/21 09:34:04;;;;;;;4.88;1.70;;;24.20;97.50;;;;;;5037141;28;20036;-86
2023/08/21 09:36:31;;;;;;;4.05;1.20;;;24.20;97.50;;;;;;5054081;28;20050;-87
2023/08/21 09:38:57;;;;;;;4.05;1.13;;;24.20;97.60;;;;;;5049807;28;20049;-87
2023/08/21 09:41:23;;;;;;;4.47;1.50;;;24.20;97.60;;;;;;5037716;28;20055;-87
2023/08/21 09:43:50;;;;;;;2.90;1.15;;;24.30;97.60;;;;;;5064123;28;20026;-87
2023/08/21 09:46:16;;;;;;;4.70;1.27;;;24.40;97.50;;;;;;5034013;28;20018;-87
2023/08/21 09:48:45;;;;;;;3.65;1.48;;;24.40;97.40;;;;;;5055357;28;20085;-87
2023/08/21 09:51:11;;;;;;;2.10;1.08;;;24.40;97.50;;;;;;5058347;28;20441;-87
2023/08/21 09:53:37;;;;;;;3.95;1.30;;;24.40;97.60;;;;;;5077454;28;20025;-87
2023/08/21 09:56:03;;;;;;;5.00;1.50;;;24.40;97.60;;;;;;5080522;28;20039;-87
2023/08/21 09:58:29;;;;;;;4.38;1.58;;;24.40;97.70;;;;;;5080896;28;20009;-85
2023/08/21 10:00:59;;;;;;;4.57;1.67;;;24.40;97.70;;;;;;5097964;28;20064;-86
2023/08/21 10:03:26;;;;;;;2.35;1.00;;;24.40;97.60;;;;;;5085770;28;20041;-86
2023/08/21 10:05:55;;;;;;;3.67;1.23;;;24.40;97.60;;;;;;5086450;28;20054;-86
2023/08/21 10:08:25;;;;;;;4.47;1.30;;;24.50;97.60;;;;;;5074601;28;20047;-87
2023/08/21 10:10:52;;;;;;;3.42;0.95;;;24.50;97.50;;;;;;5073220;28;20075;-86
2023/08/21 10:13:18;;;;;;;3.20;1.40;;;24.50;97.40;;;;;;5073113;28;20031;-86
2023/08/21 10:15:45;;;;;;;3.15;1.10;;;24.50;97.40;;;;;;5056387;28;20532;-86
2023/08/21 10:18:25;;;;;;;3.60;1.20;;;24.50;97.20;;;;;;5055960;28;20436;-86
2023/08/21 10:20:52;;;;;;;3.45;1.35;;;24.60;96.70;;;;;;5071670;28;20044;-86
2023/08/21 10:23:26;;;;;;;1.75;0.90;;;24.60;96.30;;;;;;5061548;28;20031;-86
2023/08/21 10:25:56;;;;;;;4.75;1.40;;;24.70;95.90;;;;;;5035643;28;20376;-86
2023/08/21 10:28:22;;;;;;;3.45;1.20;;;24.70;96.10;;;;;;5052612;28;20083;-86
2023/08/21 10:30:48;;;;;;;4.82;1.30;;;24.70;96.10;;;;;;5047946;28;20026;-86
2023/08/21 10:33:13;;;;;;;3.72;1.30;;;24.70;96.00;;;;;;5048614;28;20052;-87
2023/08/21 10:35:39;;;;;;;2.15;1.02;;;24.80;95.80;;;;;;5048126;28;20033;-87
2023/08/21 10:38:17;;;;;;;5.07;1.00;;;24.80;95.70;;;;;;5032384;28;20357;-86
2023/08/21 10:41:06;;;;;;;2.80;1.30;;;24.90;95.80;;;;;;5057882;28;20037;-86
2023/08/21 10:43:45;;;;;;;4.30;1.20;;;24.90;95.80;;;;;;5052312;28;20026;-86
2023/08/21 10:46:12;;;;;;;1.58;0.80;;;24.90;95.60;;;;;;5054126;28;20025;-86
2023/08/21 10:48:39;;;;;;;5.05;1.48;;;25.00;95.50;;;;;;5052496;28;20017;-86
2023/08/21 10:51:14;;;;;;;3.50;1.30;;;25.10;95.00;;;;;;5052251;28;20025;-86
2023/08/21 10:53:41;;;;;;;3.45;1.15;;;25.10;94.90;;;;;;5052893;28;20460;-86
2023/08/21 10:56:06;;;;;;;3.35;1.13;;;25.10;94.80;;;;;;5053156;28;20025;-86
2023/08/21 10:58:41;;;;;;;3.53;1.20;;;25.10;94.50;;;;;;5067057;28;20048;-86
2023/08/21 11:01:07;;;;;;;2.92;1.08;;;25.10;94.60;;;;;;5060250;28;20039;-87
2023/08/21 11:03:33;;;;;;;2.03;1.23;;;25.20;94.60;;;;;;5055808;28;20460;-86
2023/08/21 11:06:03;;;;;;;2.85;1.33;;;25.20;94.60;;;;;;5072089;28;20139;-87
2023/08/21 11:08:29;;;;;;;2.58;0.90;;;25.30;94.40;;;;;;5055614;28;20091;-86
2023/08/21 11:10:55;;;;;;;2.28;1.05;;;25.30;94.60;;;;;;5054779;28;20021;-86
2023/08/21 11:13:24;;;;;;;2.95;1.15;;;25.40;94.60;;;;;;5035776;28;20021;-86
2023/08/21 11:15:58;;;;;;;3.45;1.17;;;25.40;94.10;;;;;;5053575;28;20053;-86
2023/08/21 11:18:30;;;;;;;2.30;1.10;;;25.40;94.00;;;;;;5061326;28;20100;-86
2023/08/21 11:21:08;;;;;;;2.03;0.90;;;25.50;93.60;;;;;;5066743;28;20051;-86
2023/08/21 11:23:35;;;;;;;3.22;1.17;;;25.50;93.50;;;;;;5065694;28;20497;-86
2023/08/21 11:26:02;;;;;;;2.13;1.05;;;25.50;93.60;;;;;;5032179;28;20052;-86
2023/08/21 11:28:29;;;;;;;3.33;1.30;;;25.60;93.80;;;;;;5064546;28;20054;-86
2023/08/21 11:30:56;;;;;;;3.50;1.35;;;25.60;93.90;;;;;;5071928;28;20435;-86
2023/08/21 11:33:22;;;;;;;4.13;1.23;;;25.60;93.90;;;;;;5062207;28;20028;-86
2023/08/21 11:35:48;;;;;;;2.72;1.05;;;25.60;93.90;;;;;;5079756;28;20031;-86
2023/08/21 11:38:19;;;;;;;3.72;1.20;;;25.70;94.00;;;;;;5076926;28;20028;-86
2023/08/21 11:40:56;;;;;;;2.33;1.10;;;25.70;93.90;;;;;;5059331;28;20029;-86
2023/08/21 11:43:22;;;;;;;2.97;1.00;;;25.70;93.90;;;;;;5075727;28;20364;-86
2023/08/21 11:45:48;;;;;;;3.08;1.10;;;25.70;93.70;;;;;;5076867;28;20046;-86
2023/08/21 11:48:13;;;;;;;2.63;1.25;;;25.70;93.50;;;;;;5060241;28;20111;-86
2023/08/21 11:50:40;;;;;;;3.88;1.50;;;25.80;93.50;;;;;;5060853;28;20029;-85
2023/08/21 11:53:05;;;;;;;2.85;1.10;;;25.70;93.40;;;;;;5078404;28;20056;-85
2023/08/21 11:55:31;;;;;;;5.60;1.40;;;25.80;93.30;;;;;;5055716;28;20030;-86
2023/08/21 11:57:57;;;;;;;2.65;1.10;;;25.90;93.20;;;;;;5037573;28;20025;-86
2023/08/21 12:00:30;;;;;;;3.00;1.17;;;25.90;93.20;;;;;;5069186;28;20017;-86
2023/08/21 12:02:58;;;;;;;3.00;1.17;;;25.90;93.40;;;;;;5079282;28;20052;-85
2023/08/21 12:05:23;;;;;;;5.47;1.27;;;26.00;93.60;;;;;;5066258;28;20021;-86
2023/08/21 12:07:49;;;;;;;3.22;1.15;;;26.00;93.60;;;;;;5072878;28;20013;-86
2023/08/21 12:10:30;;;;;;;2.63;1.20;;;26.00;93.60;;;;;;5044956;28;20043;-85
2023/08/21 12:12:56;;;;;;;4.68;1.48;;;26.10;93.50;;;;;;5054827;28;20520;-85
2023/08/21 12:15:22;;;;;;;6.60;1.17;;;26.10;92.60;;;;;;5056007;28;20067;-86
2023/08/21 12:17:50;;;;;;;4.40;1.10;;;26.10;92.40;;;;;;5055696;28;20017;-86
2023/08/21 12:20:15;;;;;;;3.45;1.20;;;26.10;92.20;;;;;;5071210;28;20056;-85
2023/08/21 12:22:42;;;;;;;3.50;1.08;;;26.10;92.30;;;;;;5054728;28;20029;-86
2023/08/21 12:25:08;;;;;;;2.25;1.08;;;26.10;92.20;;;;;;5066627;28;20036;-87
2023/08/21 12:27:34;;;;;;;2.50;0.95;;;26.20;92.40;;;;;;5055010;28;20078;-86
2023/08/21 12:30:00;;;;;;;2.67;1.15;;;26.30;92.50;;;;;;5071172;28;20049;-86
2023/08/21 12:32:26;;;;;;;3.13;1.02;;;26.30;92.30;;;;;;5054543;28;20029;-86
2023/08/21 12:34:52;;;;;;;2.22;0.90;;;26.30;92.30;;;;;;5054609;28;20075;-86
2023/08/21 12:37:18;;;;;;;2.53;1.00;;;26.30;92.40;;;;;;5073379;28;20017;-86
2023/08/21 12:39:43;;;;;;;3.17;1.40;;;26.40;92.50;;;;;;5074465;28;20108;-87
2023/08/21 12:42:09;;;;;;;2.05;0.90;;;26.40;92.40;;;;;;5073578;28;20099;-87
2023/08/21 12:44:37;;;;;;;3.05;1.10;;;26.40;92.40;;;;;;5073904;28;20368;-86
2023/08/21 12:47:03;;;;;;;3.85;1.15;;;26.40;92.40;;;;;;5075248;28;20059;-86